sensor_id;sensor_type;location;lat;lon;timestamp;P1;durP1;ratioP1;P2;durP2;ratioP2
9496;SDS011;4786;51.270;4.456;2022-09-09T00:04:30;5.00;;;3.30;;
9496;SDS011;4786;51.270;4.456;2022-09-09T00:07:05;4.17;;;2.80;;
9496;SDS011;4786;51.270;4.456;2022-09-09T00:12:44;6.47;;;3.30;;
9496;SDS011;4786;51.270;4.456;2022-09-09T00:15:16;3.70;;;3.40;;
9496;SDS011;4786;51.270;4.456;2022-09-09T00:20:59;5.67;;;3.50;;
9496;SDS011;4786;51.270;4.456;2022-09-09T00:23:42;5.20;;;3.53;;
9496;SDS011;4786;51.270;4.456;2022-09-09T00:26:24;4.70;;;4.10;;
9496;SDS011;4786;51.270;4.456;2022-09-09T00:31:33;4.23;;;3.83;;
9496;SDS011;4786;51.270;4.456;2022-09-09T00:34:04;3.93;;;3.40;;
9496;SDS011;4786;51.270;4.456;2022-09-09T00:36:37;4.27;;;3.10;;
9496;SDS011;4786;51.270;4.456;2022-09-09T00:39:04;4.40;;;3.50;;
9496;SDS011;4786;51.270;4.456;2022-09-09T00:44:30;5.67;;;3.40;;
9496;SDS011;4786;51.270;4.456;2022-09-09T00:47:04;3.97;;;3.13;;
9496;SDS011;4786;51.270;4.456;2022-09-09T00:55:45;4.17;;;3.00;;
9496;SDS011;4786;51.270;4.456;2022-09-09T00:58:16;3.10;;;2.70;;
9496;SDS011;4786;51.270;4.456;2022-09-09T01:00:52;4.23;;;2.97;;
9496;SDS011;4786;51.270;4.456;2022-09-09T01:03:37;4.23;;;2.63;;
9496;SDS011;4786;51.270;4.456;2022-09-09T01:06:16;5.20;;;2.93;;
9496;SDS011;4786;51.270;4.456;2022-09-09T01:09:21;5.00;;;2.60;;
9496;SDS011;4786;51.270;4.456;2022-09-09T01:17:31;5.67;;;2.60;;
9496;SDS011;4786;51.270;4.456;2022-09-09T01:20:14;7.23;;;3.10;;
9496;SDS011;4786;51.270;4.456;2022-09-09T01:25:15;3.70;;;2.83;;
9496;SDS011;4786;51.270;4.456;2022-09-09T01:27:50;3.93;;;2.60;;
9496;SDS011;4786;51.270;4.456;2022-09-09T01:30:20;4.90;;;2.67;;
9496;SDS011;4786;51.270;4.456;2022-09-09T01:32:53;3.30;;;2.73;;
9496;SDS011;4786;51.270;4.456;2022-09-09T01:37:55;5.17;;;2.60;;
9496;SDS011;4786;51.270;4.456;2022-09-09T01:40:21;4.37;;;2.70;;
9496;SDS011;4786;51.270;4.456;2022-09-09T01:42:47;4.70;;;3.00;;
9496;SDS011;4786;51.270;4.456;2022-09-09T01:45:14;6.83;;;2.77;;
9496;SDS011;4786;51.270;4.456;2022-09-09T01:47:40;4.97;;;2.57;;
9496;SDS011;4786;51.270;4.456;2022-09-09T01:50:07;4.93;;;2.57;;
9496;SDS011;4786;51.270;4.456;2022-09-09T01:52:36;5.70;;;2.67;;
9496;SDS011;4786;51.270;4.456;2022-09-09T01:55:02;3.33;;;2.70;;
9496;SDS011;4786;51.270;4.456;2022-09-09T01:58:06;5.90;;;2.57;;
9496;SDS011;4786;51.270;4.456;2022-09-09T02:00:24;4.30;;;2.67;;
9496;SDS011;4786;51.270;4.456;2022-09-09T02:02:59;3.63;;;2.53;;
9496;SDS011;4786;51.270;4.456;2022-09-09T02:08:06;2.50;;;2.30;;
9496;SDS011;4786;51.270;4.456;2022-09-09T02:10:45;2.90;;;2.60;;
9496;SDS011;4786;51.270;4.456;2022-09-09T02:13:13;7.30;;;2.93;;
9496;SDS011;4786;51.270;4.456;2022-09-09T02:18:32;3.83;;;2.30;;
9496;SDS011;4786;51.270;4.456;2022-09-09T02:21:11;3.63;;;2.70;;
9496;SDS011;4786;51.270;4.456;2022-09-09T02:23:39;4.87;;;2.73;;
9496;SDS011;4786;51.270;4.456;2022-09-09T02:26:07;4.40;;;2.67;;
9496;SDS011;4786;51.270;4.456;2022-09-09T02:28:35;5.13;;;2.50;;
9496;SDS011;4786;51.270;4.456;2022-09-09T02:31:03;3.43;;;2.50;;
9496;SDS011;4786;51.270;4.456;2022-09-09T02:33:32;3.47;;;2.20;;
9496;SDS011;4786;51.270;4.456;2022-09-09T02:36:02;4.40;;;2.27;;
9496;SDS011;4786;51.270;4.456;2022-09-09T02:38:32;5.00;;;2.30;;
9496;SDS011;4786;51.270;4.456;2022-09-09T02:41:02;3.83;;;2.30;;
9496;SDS011;4786;51.270;4.456;2022-09-09T02:43:32;4.27;;;2.30;;
9496;SDS011;4786;51.270;4.456;2022-09-09T02:51:28;3.57;;;2.10;;
9496;SDS011;4786;51.270;4.456;2022-09-09T02:54:20;4.90;;;2.40;;
9496;SDS011;4786;51.270;4.456;2022-09-09T02:56:56;4.87;;;2.40;;
9496;SDS011;4786;51.270;4.456;2022-09-09T02:59:36;5.27;;;2.50;;
9496;SDS011;4786;51.270;4.456;2022-09-09T03:02:03;7.03;;;2.70;;
9496;SDS011;4786;51.270;4.456;2022-09-09T03:04:29;4.47;;;2.50;;
9496;SDS011;4786;51.270;4.456;2022-09-09T03:06:56;3.57;;;2.40;;
9496;SDS011;4786;51.270;4.456;2022-09-09T03:09:22;5.57;;;2.27;;
9496;SDS011;4786;51.270;4.456;2022-09-09T03:11:48;5.07;;;1.87;;
9496;SDS011;4786;51.270;4.456;2022-09-09T03:14:15;5.10;;;2.33;;
9496;SDS011;4786;51.270;4.456;2022-09-09T03:16:41;5.70;;;2.30;;
9496;SDS011;4786;51.270;4.456;2022-09-09T03:19:08;3.67;;;2.40;;
9496;SDS011;4786;51.270;4.456;2022-09-09T03:21:34;3.50;;;2.10;;
9496;SDS011;4786;51.270;4.456;2022-09-09T03:24:00;3.57;;;2.17;;
9496;SDS011;4786;51.270;4.456;2022-09-09T03:26:28;4.53;;;2.40;;
9496;SDS011;4786;51.270;4.456;2022-09-09T03:28:55;6.03;;;2.37;;
9496;SDS011;4786;51.270;4.456;2022-09-09T03:31:21;6.00;;;2.30;;
9496;SDS011;4786;51.270;4.456;2022-09-09T03:33:47;7.10;;;2.50;;
9496;SDS011;4786;51.270;4.456;2022-09-09T03:36:13;4.73;;;2.30;;
9496;SDS011;4786;51.270;4.456;2022-09-09T03:38:39;6.50;;;2.20;;
9496;SDS011;4786;51.270;4.456;2022-09-09T03:41:05;3.37;;;2.23;;
9496;SDS011;4786;51.270;4.456;2022-09-09T03:43:33;2.83;;;2.10;;
9496;SDS011;4786;51.270;4.456;2022-09-09T03:45:59;6.83;;;2.73;;
9496;SDS011;4786;51.270;4.456;2022-09-09T03:48:25;5.80;;;2.50;;
9496;SDS011;4786;51.270;4.456;2022-09-09T03:50:53;2.87;;;2.27;;
9496;SDS011;4786;51.270;4.456;2022-09-09T03:53:21;3.87;;;2.40;;
9496;SDS011;4786;51.270;4.456;2022-09-09T03:55:50;6.07;;;2.23;;
9496;SDS011;4786;51.270;4.456;2022-09-09T03:58:19;4.87;;;2.50;;
9496;SDS011;4786;51.270;4.456;2022-09-09T04:00:53;6.63;;;2.80;;
9496;SDS011;4786;51.270;4.456;2022-09-09T04:03:19;7.43;;;2.73;;
9496;SDS011;4786;51.270;4.456;2022-09-09T04:05:44;5.07;;;2.77;;
9496;SDS011;4786;51.270;4.456;2022-09-09T04:08:13;7.93;;;3.07;;
9496;SDS011;4786;51.270;4.456;2022-09-09T04:10:39;8.60;;;2.60;;
9496;SDS011;4786;51.270;4.456;2022-09-09T04:13:06;6.03;;;2.73;;
9496;SDS011;4786;51.270;4.456;2022-09-09T04:15:33;6.10;;;2.60;;
9496;SDS011;4786;51.270;4.456;2022-09-09T04:18:00;4.87;;;2.70;;
9496;SDS011;4786;51.270;4.456;2022-09-09T04:20:26;7.20;;;2.80;;
9496;SDS011;4786;51.270;4.456;2022-09-09T04:22:52;6.43;;;2.57;;
9496;SDS011;4786;51.270;4.456;2022-09-09T04:25:18;5.43;;;2.50;;
9496;SDS011;4786;51.270;4.456;2022-09-09T04:27:44;6.33;;;3.00;;
9496;SDS011;4786;51.270;4.456;2022-09-09T04:30:10;7.80;;;2.60;;
9496;SDS011;4786;51.270;4.456;2022-09-09T04:32:37;8.60;;;3.10;;
9496;SDS011;4786;51.270;4.456;2022-09-09T04:35:03;4.90;;;2.33;;
9496;SDS011;4786;51.270;4.456;2022-09-09T04:37:29;6.17;;;2.70;;
9496;SDS011;4786;51.270;4.456;2022-09-09T04:39:55;7.93;;;2.80;;
9496;SDS011;4786;51.270;4.456;2022-09-09T04:42:21;8.33;;;2.43;;
9496;SDS011;4786;51.270;4.456;2022-09-09T04:44:47;7.73;;;2.80;;
9496;SDS011;4786;51.270;4.456;2022-09-09T04:47:12;8.07;;;2.80;;
9496;SDS011;4786;51.270;4.456;2022-09-09T04:49:39;8.27;;;2.50;;
9496;SDS011;4786;51.270;4.456;2022-09-09T04:52:04;6.40;;;2.60;;
9496;SDS011;4786;51.270;4.456;2022-09-09T04:54:30;9.33;;;2.80;;
9496;SDS011;4786;51.270;4.456;2022-09-09T04:56:56;10.77;;;2.90;;
9496;SDS011;4786;51.270;4.456;2022-09-09T04:59:22;7.70;;;2.53;;
9496;SDS011;4786;51.270;4.456;2022-09-09T05:01:48;4.23;;;2.50;;
9496;SDS011;4786;51.270;4.456;2022-09-09T05:04:15;5.67;;;2.50;;
9496;SDS011;4786;51.270;4.456;2022-09-09T05:06:42;11.97;;;3.70;;
9496;SDS011;4786;51.270;4.456;2022-09-09T05:09:08;7.57;;;3.17;;
9496;SDS011;4786;51.270;4.456;2022-09-09T05:11:34;8.97;;;3.10;;
9496;SDS011;4786;51.270;4.456;2022-09-09T05:14:02;8.47;;;2.80;;
9496;SDS011;4786;51.270;4.456;2022-09-09T05:16:28;9.70;;;3.40;;
9496;SDS011;4786;51.270;4.456;2022-09-09T05:18:55;6.80;;;3.00;;
9496;SDS011;4786;51.270;4.456;2022-09-09T05:21:22;8.87;;;3.23;;
9496;SDS011;4786;51.270;4.456;2022-09-09T05:23:50;8.47;;;2.90;;
9496;SDS011;4786;51.270;4.456;2022-09-09T05:26:17;8.40;;;3.20;;
9496;SDS011;4786;51.270;4.456;2022-09-09T05:28:45;8.40;;;3.23;;
9496;SDS011;4786;51.270;4.456;2022-09-09T05:31:12;9.87;;;2.87;;
9496;SDS011;4786;51.270;4.456;2022-09-09T05:33:39;7.93;;;2.80;;
9496;SDS011;4786;51.270;4.456;2022-09-09T05:36:08;9.20;;;3.00;;
9496;SDS011;4786;51.270;4.456;2022-09-09T05:38:39;7.73;;;3.20;;
9496;SDS011;4786;51.270;4.456;2022-09-09T05:41:06;9.23;;;2.60;;
9496;SDS011;4786;51.270;4.456;2022-09-09T05:43:33;9.00;;;3.03;;
9496;SDS011;4786;51.270;4.456;2022-09-09T05:46:07;10.27;;;2.83;;
9496;SDS011;4786;51.270;4.456;2022-09-09T05:48:35;9.10;;;2.90;;
9496;SDS011;4786;51.270;4.456;2022-09-09T05:51:03;7.33;;;2.90;;
9496;SDS011;4786;51.270;4.456;2022-09-09T05:53:30;7.83;;;2.77;;
9496;SDS011;4786;51.270;4.456;2022-09-09T05:56:06;6.23;;;3.03;;
9496;SDS011;4786;51.270;4.456;2022-09-09T05:58:39;9.60;;;3.07;;
9496;SDS011;4786;51.270;4.456;2022-09-09T06:03:35;9.23;;;3.00;;
9496;SDS011;4786;51.270;4.456;2022-09-09T06:06:03;8.93;;;3.07;;
9496;SDS011;4786;51.270;4.456;2022-09-09T06:08:31;9.83;;;3.00;;
9496;SDS011;4786;51.270;4.456;2022-09-09T06:11:09;7.83;;;2.53;;
9496;SDS011;4786;51.270;4.456;2022-09-09T06:13:43;8.03;;;2.70;;
9496;SDS011;4786;51.270;4.456;2022-09-09T06:16:10;9.73;;;2.87;;
9496;SDS011;4786;51.270;4.456;2022-09-09T06:18:42;6.80;;;2.60;;
9496;SDS011;4786;51.270;4.456;2022-09-09T06:21:15;7.67;;;3.17;;
9496;SDS011;4786;51.270;4.456;2022-09-09T06:23:41;6.07;;;2.43;;
9496;SDS011;4786;51.270;4.456;2022-09-09T06:26:10;10.47;;;3.00;;
9496;SDS011;4786;51.270;4.456;2022-09-09T06:28:38;16.07;;;3.33;;
9496;SDS011;4786;51.270;4.456;2022-09-09T06:31:05;10.37;;;3.00;;
9496;SDS011;4786;51.270;4.456;2022-09-09T06:33:33;6.43;;;2.67;;
9496;SDS011;4786;51.270;4.456;2022-09-09T06:36:02;8.83;;;3.00;;
9496;SDS011;4786;51.270;4.456;2022-09-09T06:38:48;7.67;;;2.73;;
9496;SDS011;4786;51.270;4.456;2022-09-09T06:41:15;8.70;;;2.83;;
9496;SDS011;4786;51.270;4.456;2022-09-09T06:43:43;11.27;;;2.90;;
9496;SDS011;4786;51.270;4.456;2022-09-09T06:46:16;12.87;;;3.07;;
9496;SDS011;4786;51.270;4.456;2022-09-09T06:48:52;8.90;;;2.70;;
9496;SDS011;4786;51.270;4.456;2022-09-09T06:51:20;13.17;;;2.90;;
9496;SDS011;4786;51.270;4.456;2022-09-09T06:53:47;8.47;;;2.87;;
9496;SDS011;4786;51.270;4.456;2022-09-09T06:58:44;10.17;;;3.03;;
9496;SDS011;4786;51.270;4.456;2022-09-09T07:01:11;10.90;;;3.10;;
9496;SDS011;4786;51.270;4.456;2022-09-09T07:03:38;9.37;;;3.00;;
9496;SDS011;4786;51.270;4.456;2022-09-09T07:06:05;11.93;;;3.10;;
9496;SDS011;4786;51.270;4.456;2022-09-09T07:08:32;9.23;;;2.70;;
9496;SDS011;4786;51.270;4.456;2022-09-09T07:11:07;15.00;;;3.10;;
9496;SDS011;4786;51.270;4.456;2022-09-09T07:13:34;9.57;;;2.70;;
9496;SDS011;4786;51.270;4.456;2022-09-09T07:16:11;6.90;;;2.80;;
9496;SDS011;4786;51.270;4.456;2022-09-09T07:18:39;10.73;;;2.87;;
9496;SDS011;4786;51.270;4.456;2022-09-09T07:21:06;8.70;;;2.70;;
9496;SDS011;4786;51.270;4.456;2022-09-09T07:23:34;7.17;;;3.07;;
9496;SDS011;4786;51.270;4.456;2022-09-09T07:26:00;11.50;;;2.60;;
9496;SDS011;4786;51.270;4.456;2022-09-09T07:28:27;9.73;;;3.17;;
9496;SDS011;4786;51.270;4.456;2022-09-09T07:31:01;6.27;;;2.60;;
9496;SDS011;4786;51.270;4.456;2022-09-09T07:33:28;9.13;;;2.60;;
9496;SDS011;4786;51.270;4.456;2022-09-09T07:36:02;9.13;;;3.00;;
9496;SDS011;4786;51.270;4.456;2022-09-09T07:38:29;9.50;;;3.00;;
9496;SDS011;4786;51.270;4.456;2022-09-09T07:41:02;10.17;;;2.47;;
9496;SDS011;4786;51.270;4.456;2022-09-09T07:43:30;9.70;;;2.60;;
9496;SDS011;4786;51.270;4.456;2022-09-09T07:45:59;8.80;;;2.60;;
9496;SDS011;4786;51.270;4.456;2022-09-09T07:48:28;12.03;;;2.83;;
9496;SDS011;4786;51.270;4.456;2022-09-09T07:51:02;8.90;;;2.70;;
9496;SDS011;4786;51.270;4.456;2022-09-09T07:53:37;11.33;;;3.03;;
9496;SDS011;4786;51.270;4.456;2022-09-09T07:56:07;10.47;;;2.43;;
9496;SDS011;4786;51.270;4.456;2022-09-09T07:58:36;7.43;;;2.70;;
9496;SDS011;4786;51.270;4.456;2022-09-09T08:01:09;13.27;;;3.00;;
9496;SDS011;4786;51.270;4.456;2022-09-09T08:03:37;7.47;;;2.60;;
9496;SDS011;4786;51.270;4.456;2022-09-09T08:06:04;8.97;;;2.77;;
9496;SDS011;4786;51.270;4.456;2022-09-09T08:08:32;8.40;;;2.80;;
9496;SDS011;4786;51.270;4.456;2022-09-09T08:11:06;8.40;;;2.93;;
9496;SDS011;4786;51.270;4.456;2022-09-09T08:13:37;9.80;;;2.80;;
9496;SDS011;4786;51.270;4.456;2022-09-09T08:16:08;12.13;;;2.43;;
9496;SDS011;4786;51.270;4.456;2022-09-09T08:18:39;8.63;;;2.87;;
9496;SDS011;4786;51.270;4.456;2022-09-09T08:21:06;9.13;;;3.13;;
9496;SDS011;4786;51.270;4.456;2022-09-09T08:23:32;10.10;;;2.93;;
9496;SDS011;4786;51.270;4.456;2022-09-09T08:26:06;9.27;;;2.87;;
9496;SDS011;4786;51.270;4.456;2022-09-09T08:28:44;11.50;;;2.77;;
9496;SDS011;4786;51.270;4.456;2022-09-09T08:33:40;7.43;;;2.50;;
9496;SDS011;4786;51.270;4.456;2022-09-09T08:36:09;12.03;;;2.60;;
9496;SDS011;4786;51.270;4.456;2022-09-09T08:38:37;6.23;;;2.77;;
9496;SDS011;4786;51.270;4.456;2022-09-09T08:43:50;7.33;;;2.40;;
9496;SDS011;4786;51.270;4.456;2022-09-09T08:52:22;7.23;;;2.60;;
9496;SDS011;4786;51.270;4.456;2022-09-09T08:55:20;8.00;;;2.37;;
9496;SDS011;4786;51.270;4.456;2022-09-09T08:58:16;7.47;;;2.23;;
9496;SDS011;4786;51.270;4.456;2022-09-09T09:03:40;7.30;;;2.00;;
9496;SDS011;4786;51.270;4.456;2022-09-09T09:06:26;7.77;;;2.40;;
9496;SDS011;4786;51.270;4.456;2022-09-09T09:11:56;7.73;;;2.20;;
9496;SDS011;4786;51.270;4.456;2022-09-09T09:14:26;9.90;;;2.60;;
9496;SDS011;4786;51.270;4.456;2022-09-09T09:19:23;6.10;;;2.50;;
9496;SDS011;4786;51.270;4.456;2022-09-09T09:27:18;7.00;;;3.67;;
9496;SDS011;4786;51.270;4.456;2022-09-09T09:29:58;11.13;;;3.83;;
9496;SDS011;4786;51.270;4.456;2022-09-09T09:32:27;8.97;;;4.13;;
9496;SDS011;4786;51.270;4.456;2022-09-09T09:34:58;11.43;;;4.30;;
9496;SDS011;4786;51.270;4.456;2022-09-09T09:37:30;14.60;;;4.90;;
9496;SDS011;4786;51.270;4.456;2022-09-09T09:42:59;10.07;;;3.80;;
9496;SDS011;4786;51.270;4.456;2022-09-09T09:48:00;7.17;;;2.40;;
9496;SDS011;4786;51.270;4.456;2022-09-09T09:50:28;7.00;;;2.47;;
9496;SDS011;4786;51.270;4.456;2022-09-09T09:52:56;7.57;;;2.77;;
9496;SDS011;4786;51.270;4.456;2022-09-09T09:55:32;5.80;;;2.23;;
9496;SDS011;4786;51.270;4.456;2022-09-09T09:58:06;7.40;;;2.40;;
9496;SDS011;4786;51.270;4.456;2022-09-09T10:00:46;5.90;;;2.40;;
9496;SDS011;4786;51.270;4.456;2022-09-09T10:03:21;8.00;;;2.30;;
9496;SDS011;4786;51.270;4.456;2022-09-09T10:05:54;6.73;;;2.73;;
9496;SDS011;4786;51.270;4.456;2022-09-09T10:08:21;9.03;;;2.63;;
9496;SDS011;4786;51.270;4.456;2022-09-09T10:19:13;5.97;;;2.30;;
9496;SDS011;4786;51.270;4.456;2022-09-09T10:27:01;6.97;;;2.60;;
9496;SDS011;4786;51.270;4.456;2022-09-09T10:32:32;6.70;;;2.43;;
9496;SDS011;4786;51.270;4.456;2022-09-09T10:35:10;6.97;;;2.17;;
9496;SDS011;4786;51.270;4.456;2022-09-09T10:46:26;7.33;;;2.33;;
9496;SDS011;4786;51.270;4.456;2022-09-09T10:51:44;5.33;;;2.00;;
9496;SDS011;4786;51.270;4.456;2022-09-09T10:54:29;4.87;;;2.10;;
9496;SDS011;4786;51.270;4.456;2022-09-09T10:57:13;6.60;;;2.50;;
9496;SDS011;4786;51.270;4.456;2022-09-09T10:59:49;7.50;;;2.30;;
9496;SDS011;4786;51.270;4.456;2022-09-09T11:02:28;4.83;;;2.17;;
9496;SDS011;4786;51.270;4.456;2022-09-09T11:05:03;5.47;;;2.33;;
9496;SDS011;4786;51.270;4.456;2022-09-09T11:07:59;3.90;;;2.10;;
9496;SDS011;4786;51.270;4.456;2022-09-09T11:10:34;5.93;;;2.33;;
9496;SDS011;4786;51.270;4.456;2022-09-09T11:13:24;7.00;;;2.30;;
9496;SDS011;4786;51.270;4.456;2022-09-09T11:21:55;2.83;;;2.00;;
9496;SDS011;4786;51.270;4.456;2022-09-09T11:24:24;4.57;;;1.70;;
9496;SDS011;4786;51.270;4.456;2022-09-09T11:27:00;4.67;;;1.80;;
9496;SDS011;4786;51.270;4.456;2022-09-09T11:38:27;3.60;;;1.70;;
9496;SDS011;4786;51.270;4.456;2022-09-09T11:40:57;5.73;;;2.10;;
9496;SDS011;4786;51.270;4.456;2022-09-09T11:46:04;6.27;;;2.07;;
9496;SDS011;4786;51.270;4.456;2022-09-09T11:48:36;6.22;;;2.28;;
9496;SDS011;4786;51.270;4.456;2022-09-09T11:51:12;3.93;;;1.83;;
9496;SDS011;4786;51.270;4.456;2022-09-09T11:56:42;9.03;;;2.23;;
9496;SDS011;4786;51.270;4.456;2022-09-09T11:59:22;3.10;;;1.50;;
9496;SDS011;4786;51.270;4.456;2022-09-09T12:02:02;6.80;;;2.00;;
9496;SDS011;4786;51.270;4.456;2022-09-09T12:04:38;4.30;;;1.60;;
9496;SDS011;4786;51.270;4.456;2022-09-09T12:17:46;3.60;;;1.63;;
9496;SDS011;4786;51.270;4.456;2022-09-09T12:27:52;4.38;;;1.55;;
9496;SDS011;4786;51.270;4.456;2022-09-09T12:30:29;4.85;;;1.70;;
9496;SDS011;4786;51.270;4.456;2022-09-09T12:33:02;3.42;;;1.60;;
9496;SDS011;4786;51.270;4.456;2022-09-09T12:35:38;3.28;;;1.85;;
9496;SDS011;4786;51.270;4.456;2022-09-09T12:38:06;5.60;;;1.88;;
9496;SDS011;4786;51.270;4.456;2022-09-09T12:40:53;2.70;;;1.50;;
9496;SDS011;4786;51.270;4.456;2022-09-09T12:43:23;6.30;;;1.40;;
9496;SDS011;4786;51.270;4.456;2022-09-09T12:45:51;5.35;;;1.50;;
9496;SDS011;4786;51.270;4.456;2022-09-09T12:48:46;3.50;;;1.63;;
9496;SDS011;4786;51.270;4.456;2022-09-09T12:51:18;3.42;;;1.70;;
9496;SDS011;4786;51.270;4.456;2022-09-09T12:53:53;4.90;;;1.65;;
9496;SDS011;4786;51.270;4.456;2022-09-09T12:56:25;4.45;;;1.60;;
9496;SDS011;4786;51.270;4.456;2022-09-09T12:58:56;3.60;;;1.50;;
9496;SDS011;4786;51.270;4.456;2022-09-09T13:01:28;7.72;;;1.80;;
9496;SDS011;4786;51.270;4.456;2022-09-09T13:03:56;6.53;;;2.25;;
9496;SDS011;4786;51.270;4.456;2022-09-09T13:08:48;3.90;;;1.70;;
9496;SDS011;4786;51.270;4.456;2022-09-09T13:11:36;2.20;;;1.42;;
9496;SDS011;4786;51.270;4.456;2022-09-09T13:14:03;4.32;;;1.50;;
9496;SDS011;4786;51.270;4.456;2022-09-09T13:16:34;2.15;;;1.48;;
9496;SDS011;4786;51.270;4.456;2022-09-09T13:19:13;4.13;;;1.60;;
9496;SDS011;4786;51.270;4.456;2022-09-09T13:21:41;3.45;;;1.50;;
9496;SDS011;4786;51.270;4.456;2022-09-09T13:27:00;2.03;;;1.33;;
9496;SDS011;4786;51.270;4.456;2022-09-09T13:29:50;4.53;;;1.50;;
9496;SDS011;4786;51.270;4.456;2022-09-09T13:32:20;3.72;;;1.42;;
9496;SDS011;4786;51.270;4.456;2022-09-09T13:34:50;1.67;;;1.20;;
9496;SDS011;4786;51.270;4.456;2022-09-09T13:37:34;3.38;;;1.70;;
9496;SDS011;4786;51.270;4.456;2022-09-09T13:40:06;4.35;;;1.75;;
9496;SDS011;4786;51.270;4.456;2022-09-09T13:42:43;4.90;;;1.77;;
9496;SDS011;4786;51.270;4.456;2022-09-09T13:45:20;4.07;;;1.60;;
9496;SDS011;4786;51.270;4.456;2022-09-09T13:47:48;3.55;;;1.60;;
9496;SDS011;4786;51.270;4.456;2022-09-09T13:52:55;2.72;;;1.48;;
9496;SDS011;4786;51.270;4.456;2022-09-09T13:55:25;2.78;;;1.58;;
9496;SDS011;4786;51.270;4.456;2022-09-09T13:57:56;2.65;;;1.42;;
9496;SDS011;4786;51.270;4.456;2022-09-09T14:00:29;2.90;;;1.40;;
9496;SDS011;4786;51.270;4.456;2022-09-09T14:02:56;2.50;;;1.40;;
9496;SDS011;4786;51.270;4.456;2022-09-09T14:05:23;3.47;;;1.50;;
9496;SDS011;4786;51.270;4.456;2022-09-09T14:07:50;1.90;;;1.30;;
9496;SDS011;4786;51.270;4.456;2022-09-09T14:10:16;2.67;;;1.60;;
9496;SDS011;4786;51.270;4.456;2022-09-09T14:12:42;3.42;;;1.42;;
9496;SDS011;4786;51.270;4.456;2022-09-09T14:15:09;5.82;;;1.63;;
9496;SDS011;4786;51.270;4.456;2022-09-09T14:17:37;3.10;;;1.60;;
9496;SDS011;4786;51.270;4.456;2022-09-09T14:20:04;4.93;;;1.63;;
9496;SDS011;4786;51.270;4.456;2022-09-09T14:22:34;2.95;;;1.58;;
9496;SDS011;4786;51.270;4.456;2022-09-09T14:25:00;3.08;;;1.70;;
9496;SDS011;4786;51.270;4.456;2022-09-09T14:27:26;2.30;;;1.23;;
9496;SDS011;4786;51.270;4.456;2022-09-09T14:29:52;3.35;;;1.50;;
9496;SDS011;4786;51.270;4.456;2022-09-09T14:32:19;2.88;;;1.25;;
9496;SDS011;4786;51.270;4.456;2022-09-09T14:34:45;3.67;;;1.40;;
9496;SDS011;4786;51.270;4.456;2022-09-09T14:37:10;2.42;;;1.70;;
9496;SDS011;4786;51.270;4.456;2022-09-09T14:39:36;4.15;;;1.60;;
9496;SDS011;4786;51.270;4.456;2022-09-09T14:42:02;2.60;;;1.30;;
9496;SDS011;4786;51.270;4.456;2022-09-09T14:44:27;3.22;;;1.60;;
9496;SDS011;4786;51.270;4.456;2022-09-09T14:46:54;3.05;;;1.42;;
9496;SDS011;4786;51.270;4.456;2022-09-09T14:49:19;3.90;;;1.50;;
9496;SDS011;4786;51.270;4.456;2022-09-09T14:51:46;3.15;;;1.73;;
9496;SDS011;4786;51.270;4.456;2022-09-09T14:54:12;6.47;;;1.63;;
9496;SDS011;4786;51.270;4.456;2022-09-09T14:56:37;3.70;;;1.40;;
9496;SDS011;4786;51.270;4.456;2022-09-09T14:59:04;4.38;;;1.40;;
9496;SDS011;4786;51.270;4.456;2022-09-09T15:01:30;3.63;;;1.55;;
9496;SDS011;4786;51.270;4.456;2022-09-09T15:04:00;3.17;;;1.45;;
9496;SDS011;4786;51.270;4.456;2022-09-09T15:06:31;4.55;;;2.05;;
9496;SDS011;4786;51.270;4.456;2022-09-09T15:08:58;5.85;;;1.75;;
9496;SDS011;4786;51.270;4.456;2022-09-09T15:11:26;2.92;;;1.65;;
9496;SDS011;4786;51.270;4.456;2022-09-09T15:13:55;2.47;;;1.50;;
9496;SDS011;4786;51.270;4.456;2022-09-09T15:16:23;7.10;;;2.28;;
9496;SDS011;4786;51.270;4.456;2022-09-09T15:18:52;2.15;;;1.70;;
9496;SDS011;4786;51.270;4.456;2022-09-09T15:21:21;4.50;;;2.08;;
9496;SDS011;4786;51.270;4.456;2022-09-09T15:23:49;2.53;;;1.83;;
9496;SDS011;4786;51.270;4.456;2022-09-09T15:26:15;5.22;;;1.88;;
9496;SDS011;4786;51.270;4.456;2022-09-09T15:28:42;3.30;;;1.60;;
9496;SDS011;4786;51.270;4.456;2022-09-09T15:34:05;3.90;;;1.80;;
9496;SDS011;4786;51.270;4.456;2022-09-09T15:39:05;2.45;;;1.70;;
9496;SDS011;4786;51.270;4.456;2022-09-09T15:41:34;4.43;;;1.85;;
9496;SDS011;4786;51.270;4.456;2022-09-09T15:44:00;5.20;;;2.03;;
9496;SDS011;4786;51.270;4.456;2022-09-09T15:46:35;5.10;;;2.33;;
9496;SDS011;4786;51.270;4.456;2022-09-09T15:51:37;3.38;;;2.20;;
9496;SDS011;4786;51.270;4.456;2022-09-09T15:54:12;5.57;;;2.45;;
9496;SDS011;4786;51.270;4.456;2022-09-09T15:56:41;5.90;;;2.50;;
9496;SDS011;4786;51.270;4.456;2022-09-09T15:59:08;5.63;;;2.38;;
9496;SDS011;4786;51.270;4.456;2022-09-09T16:01:34;4.60;;;2.30;;
9496;SDS011;4786;51.270;4.456;2022-09-09T16:04:00;4.53;;;2.38;;
9496;SDS011;4786;51.270;4.456;2022-09-09T16:06:32;6.38;;;2.40;;
9496;SDS011;4786;51.270;4.456;2022-09-09T16:08:58;5.07;;;2.22;;
9496;SDS011;4786;51.270;4.456;2022-09-09T16:11:27;3.25;;;1.90;;
9496;SDS011;4786;51.270;4.456;2022-09-09T16:13:56;3.92;;;2.00;;
9496;SDS011;4786;51.270;4.456;2022-09-09T16:16:23;3.20;;;2.30;;
9496;SDS011;4786;51.270;4.456;2022-09-09T16:18:51;3.30;;;1.75;;
9496;SDS011;4786;51.270;4.456;2022-09-09T16:21:20;4.90;;;1.95;;
9496;SDS011;4786;51.270;4.456;2022-09-09T16:23:52;2.95;;;1.65;;
9496;SDS011;4786;51.270;4.456;2022-09-09T16:26:21;2.97;;;1.63;;
9496;SDS011;4786;51.270;4.456;2022-09-09T16:28:47;2.92;;;1.88;;
9496;SDS011;4786;51.270;4.456;2022-09-09T16:31:18;3.15;;;1.77;;
9496;SDS011;4786;51.270;4.456;2022-09-09T16:33:46;3.80;;;1.90;;
9496;SDS011;4786;51.270;4.456;2022-09-09T16:36:14;4.78;;;1.90;;
9496;SDS011;4786;51.270;4.456;2022-09-09T16:38:42;3.50;;;1.73;;
9496;SDS011;4786;51.270;4.456;2022-09-09T16:41:09;3.78;;;1.60;;
9496;SDS011;4786;51.270;4.456;2022-09-09T16:43:37;3.90;;;2.10;;
9496;SDS011;4786;51.270;4.456;2022-09-09T16:46:03;3.08;;;1.80;;
9496;SDS011;4786;51.270;4.456;2022-09-09T16:48:37;3.65;;;1.90;;
9496;SDS011;4786;51.270;4.456;2022-09-09T16:51:07;2.55;;;1.75;;
9496;SDS011;4786;51.270;4.456;2022-09-09T16:53:37;2.63;;;1.77;;
9496;SDS011;4786;51.270;4.456;2022-09-09T16:56:06;2.83;;;1.90;;
9496;SDS011;4786;51.270;4.456;2022-09-09T16:58:33;3.65;;;2.10;;
9496;SDS011;4786;51.270;4.456;2022-09-09T17:01:00;3.05;;;1.98;;
9496;SDS011;4786;51.270;4.456;2022-09-09T17:03:28;3.17;;;1.90;;
9496;SDS011;4786;51.270;4.456;2022-09-09T17:05:54;5.10;;;2.10;;
9496;SDS011;4786;51.270;4.456;2022-09-09T17:08:20;4.22;;;1.73;;
9496;SDS011;4786;51.270;4.456;2022-09-09T17:10:46;3.50;;;1.70;;
9496;SDS011;4786;51.270;4.456;2022-09-09T17:13:12;3.15;;;2.00;;
9496;SDS011;4786;51.270;4.456;2022-09-09T17:15:39;4.13;;;1.85;;
9496;SDS011;4786;51.270;4.456;2022-09-09T17:18:09;4.75;;;2.03;;
9496;SDS011;4786;51.270;4.456;2022-09-09T17:20:39;5.88;;;2.15;;
9496;SDS011;4786;51.270;4.456;2022-09-09T17:23:06;4.43;;;2.00;;
9496;SDS011;4786;51.270;4.456;2022-09-09T17:25:33;3.85;;;1.88;;
9496;SDS011;4786;51.270;4.456;2022-09-09T17:27:59;3.78;;;2.00;;
9496;SDS011;4786;51.270;4.456;2022-09-09T17:30:29;3.88;;;1.98;;
9496;SDS011;4786;51.270;4.456;2022-09-09T17:32:58;5.57;;;2.17;;
9496;SDS011;4786;51.270;4.456;2022-09-09T17:35:25;3.70;;;2.15;;
9496;SDS011;4786;51.270;4.456;2022-09-09T17:37:52;5.65;;;2.55;;
9496;SDS011;4786;51.270;4.456;2022-09-09T17:40:19;3.50;;;2.17;;
9496;SDS011;4786;51.270;4.456;2022-09-09T17:42:45;2.50;;;1.80;;
9496;SDS011;4786;51.270;4.456;2022-09-09T17:45:12;2.75;;;1.95;;
9496;SDS011;4786;51.270;4.456;2022-09-09T17:47:39;5.32;;;2.38;;
9496;SDS011;4786;51.270;4.456;2022-09-09T17:50:08;3.40;;;2.37;;
9496;SDS011;4786;51.270;4.456;2022-09-09T17:52:36;5.03;;;2.27;;
9496;SDS011;4786;51.270;4.456;2022-09-09T17:55:03;4.10;;;2.40;;
9496;SDS011;4786;51.270;4.456;2022-09-09T17:57:29;2.95;;;2.30;;
9496;SDS011;4786;51.270;4.456;2022-09-09T17:59:55;4.47;;;2.47;;
9496;SDS011;4786;51.270;4.456;2022-09-09T18:02:21;3.87;;;2.70;;
9496;SDS011;4786;51.270;4.456;2022-09-09T18:04:46;5.05;;;3.00;;
9496;SDS011;4786;51.270;4.456;2022-09-09T18:07:13;3.73;;;2.43;;
9496;SDS011;4786;51.270;4.456;2022-09-09T18:09:39;9.10;;;3.25;;
9496;SDS011;4786;51.270;4.456;2022-09-09T18:12:05;3.77;;;2.57;;
9496;SDS011;4786;51.270;4.456;2022-09-09T18:14:33;4.37;;;2.73;;